sensor_id;sensor_type;location;lat;lon;timestamp;pressure;altitude;pressure_sealevel;temperature;humidity
51439;BME280;38816;51.142;-0.974;2023-05-15T00:01:37;100262.94;;;11.53;100.00
51439;BME280;38816;51.142;-0.974;2023-05-15T00:04:03;100257.81;;;11.56;100.00
51439;BME280;38816;51.142;-0.974;2023-05-15T00:06:28;100257.78;;;11.55;100.00
51439;BME280;38816;51.142;-0.974;2023-05-15T00:08:54;100263.84;;;11.60;100.00
51439;BME280;38816;51.142;-0.974;2023-05-15T00:11:19;100255.28;;;11.58;100.00
51439;BME280;38816;51.142;-0.974;2023-05-15T00:13:48;100248.41;;;11.60;100.00
51439;BME280;38816;51.142;-0.974;2023-05-15T00:16:13;100251.88;;;11.62;100.00
51439;BME280;38816;51.142;-0.974;2023-05-15T00:18:38;100259.69;;;11.70;100.00
51439;BME280;38816;51.142;-0.974;2023-05-15T00:21:04;100258.81;;;11.69;100.00
51439;BME280;38816;51.142;-0.974;2023-05-15T00:23:29;100239.81;;;11.58;100.00
51439;BME280;38816;51.142;-0.974;2023-05-15T00:25:54;100247.59;;;11.64;100.00
51439;BME280;38816;51.142;-0.974;2023-05-15T00:28:20;100254.41;;;11.59;100.00
51439;BME280;38816;51.142;-0.974;2023-05-15T00:30:45;100252.66;;;11.55;100.00
51439;BME280;38816;51.142;-0.974;2023-05-15T00:33:10;100248.38;;;11.57;100.00
51439;BME280;38816;51.142;-0.974;2023-05-15T00:35:36;100232.91;;;11.54;100.00
51439;BME280;38816;51.142;-0.974;2023-05-15T00:38:01;100231.97;;;11.49;100.00
51439;BME280;38816;51.142;-0.974;2023-05-15T00:40:27;100234.56;;;11.50;100.00
51439;BME280;38816;51.142;-0.974;2023-05-15T00:42:53;100230.22;;;11.48;100.00
51439;BME280;38816;51.142;-0.974;2023-05-15T00:45:20;100237.06;;;11.44;100.00
51439;BME280;38816;51.142;-0.974;2023-05-15T00:47:46;100243.94;;;11.47;100.00
51439;BME280;38816;51.142;-0.974;2023-05-15T00:50:13;100247.38;;;11.47;100.00
51439;BME280;38816;51.142;-0.974;2023-05-15T00:52:39;100243.91;;;11.42;100.00
51439;BME280;38816;51.142;-0.974;2023-05-15T00:55:05;100251.59;;;11.40;100.00
51439;BME280;38816;51.142;-0.974;2023-05-15T00:57:30;100240.28;;;11.29;100.00
51439;BME280;38816;51.142;-0.974;2023-05-15T00:59:56;100240.28;;;11.28;100.00
51439;BME280;38816;51.142;-0.974;2023-05-15T01:02:23;100244.63;;;11.30;100.00
51439;BME280;38816;51.142;-0.974;2023-05-15T01:04:48;100250.69;;;11.37;100.00
51439;BME280;38816;51.142;-0.974;2023-05-15T01:07:14;100234.28;;;11.27;100.00
51439;BME280;38816;51.142;-0.974;2023-05-15T01:09:43;100248.13;;;11.38;100.00
51439;BME280;38816;51.142;-0.974;2023-05-15T01:12:10;100251.59;;;11.40;100.00
51439;BME280;38816;51.142;-0.974;2023-05-15T01:14:36;100246.47;;;11.40;100.00
51439;BME280;38816;51.142;-0.974;2023-05-15T01:17:01;100232.63;;;11.32;100.00
51439;BME280;38816;51.142;-0.974;2023-05-15T01:19:27;100236.03;;;11.31;100.00
51439;BME280;38816;51.142;-0.974;2023-05-15T01:27:23;100240.22;;;11.25;100.00
51439;BME280;38816;51.142;-0.974;2023-05-15T01:29:59;100239.31;;;11.21;100.00
51439;BME280;38816;51.142;-0.974;2023-05-15T01:32:37;100245.38;;;11.23;100.00
51439;BME280;38816;51.142;-0.974;2023-05-15T01:35:11;100229.81;;;11.14;100.00
51439;BME280;38816;51.142;-0.974;2023-05-15T01:37:41;100240.09;;;11.12;100.00
51439;BME280;38816;51.142;-0.974;2023-05-15T01:40:09;100251.25;;;11.16;100.00
51439;BME280;38816;51.142;-0.974;2023-05-15T01:42:38;100253.03;;;11.20;100.00
51439;BME280;38816;51.142;-0.974;2023-05-15T01:45:09;100245.28;;;11.17;100.00
51439;BME280;38816;51.142;-0.974;2023-05-15T01:47:39;100253.09;;;11.23;100.00
51439;BME280;38816;51.142;-0.974;2023-05-15T01:50:07;100243.59;;;11.21;100.00
51439;BME280;38816;51.142;-0.974;2023-05-15T01:52:35;100231.63;;;11.23;100.00
51439;BME280;38816;51.142;-0.974;2023-05-15T01:55:04;100242.91;;;11.31;100.00
51439;BME280;38816;51.142;-0.974;2023-05-15T01:57:32;100244.63;;;11.33;100.00
51439;BME280;38816;51.142;-0.974;2023-05-15T01:59:58;100236.06;;;11.34;100.00
51439;BME280;38816;51.142;-0.974;2023-05-15T02:02:24;100252.53;;;11.46;100.00
51439;BME280;38816;51.142;-0.974;2023-05-15T02:04:51;100250.81;;;11.45;100.00
51439;BME280;38816;51.142;-0.974;2023-05-15T02:07:17;100244.75;;;11.43;100.00
51439;BME280;38816;51.142;-0.974;2023-05-15T02:09:43;100244.81;;;11.47;100.00
51439;BME280;38816;51.142;-0.974;2023-05-15T02:12:09;100243.09;;;11.48;100.00
51439;BME280;38816;51.142;-0.974;2023-05-15T02:14:36;100238.75;;;11.42;100.00
51439;BME280;38816;51.142;-0.974;2023-05-15T02:17:03;100237.94;;;11.46;100.00
51439;BME280;38816;51.142;-0.974;2023-05-15T02:19:28;100229.28;;;11.39;100.00
51439;BME280;38816;51.142;-0.974;2023-05-15T02:21:53;100232.72;;;11.40;100.00
51439;BME280;38816;51.142;-0.974;2023-05-15T02:24:19;100230.16;;;11.41;100.00
51439;BME280;38816;51.142;-0.974;2023-05-15T02:26:55;100246.47;;;11.44;100.00
51439;BME280;38816;51.142;-0.974;2023-05-15T02:29:39;100236.97;;;11.36;100.00
51439;BME280;38816;51.142;-0.974;2023-05-15T02:37:19;100235.19;;;11.31;100.00
51439;BME280;38816;51.142;-0.974;2023-05-15T02:39:50;100246.31;;;11.30;100.00
51439;BME280;38816;51.142;-0.974;2023-05-15T02:42:18;100227.31;;;11.20;100.00
51439;BME280;38816;51.142;-0.974;2023-05-15T02:44:45;100230.72;;;11.19;100.00
51439;BME280;38816;51.142;-0.974;2023-05-15T02:47:11;100244.50;;;11.24;100.00
51439;BME280;38816;51.142;-0.974;2023-05-15T02:49:38;100230.72;;;11.19;100.00
51439;BME280;38816;51.142;-0.974;2023-05-15T02:52:04;100243.66;;;11.24;100.00
51439;BME280;38816;51.142;-0.974;2023-05-15T02:54:29;100240.16;;;11.17;100.00
51439;BME280;38816;51.142;-0.974;2023-05-15T02:56:55;100251.25;;;11.16;100.00
51439;BME280;38816;51.142;-0.974;2023-05-15T02:59:20;100244.31;;;11.09;100.00
51439;BME280;38816;51.142;-0.974;2023-05-15T03:01:46;100246.75;;;11.01;100.00
51439;BME280;38816;51.142;-0.974;2023-05-15T03:04:15;100257.84;;;10.97;100.00
51439;BME280;38816;51.142;-0.974;2023-05-15T03:06:40;100252.63;;;10.93;100.00
51439;BME280;38816;51.142;-0.974;2023-05-15T03:09:06;100262.91;;;10.91;100.00
51439;BME280;38816;51.142;-0.974;2023-05-15T03:11:32;100262.72;;;10.80;100.00
51439;BME280;38816;51.142;-0.974;2023-05-15T03:13:57;100260.91;;;10.73;100.00
51439;BME280;38816;51.142;-0.974;2023-05-15T03:16:24;100266.03;;;10.72;100.00
51439;BME280;38816;51.142;-0.974;2023-05-15T03:18:50;100268.91;;;10.40;100.00
51439;BME280;38816;51.142;-0.974;2023-05-15T03:21:19;100249.75;;;10.23;100.00
51439;BME280;38816;51.142;-0.974;2023-05-15T03:23:44;100264.91;;;10.09;100.00
51439;BME280;38816;51.142;-0.974;2023-05-15T03:26:10;100275.91;;;10.03;100.00
51439;BME280;38816;51.142;-0.974;2023-05-15T03:28:36;100279.31;;;10.01;100.00
51439;BME280;38816;51.142;-0.974;2023-05-15T03:31:01;100280.97;;;9.99;100.00
51439;BME280;38816;51.142;-0.974;2023-05-15T03:33:29;100275.75;;;9.94;100.00
51439;BME280;38816;51.142;-0.974;2023-05-15T03:35:55;100266.13;;;9.82;100.00
51439;BME280;38816;51.142;-0.974;2023-05-15T03:38:20;100259.97;;;9.76;100.00
51439;BME280;38816;51.142;-0.974;2023-05-15T03:40:45;100285.78;;;9.82;100.00
51439;BME280;38816;51.142;-0.974;2023-05-15T03:43:11;100282.28;;;9.78;100.00
51439;BME280;38816;51.142;-0.974;2023-05-15T03:45:37;100262.34;;;9.65;100.00
51439;BME280;38816;51.142;-0.974;2023-05-15T03:48:04;100282.09;;;9.69;100.00
51439;BME280;38816;51.142;-0.974;2023-05-15T03:50:29;100282.06;;;9.68;100.00
51439;BME280;38816;51.142;-0.974;2023-05-15T03:52:55;100279.38;;;9.63;100.00
51439;BME280;38816;51.142;-0.974;2023-05-15T03:55:20;100273.28;;;9.58;100.00
51439;BME280;38816;51.142;-0.974;2023-05-15T03:57:46;100285.00;;;9.45;100.00
51439;BME280;38816;51.142;-0.974;2023-05-15T04:00:12;100279.88;;;9.45;100.00
51439;BME280;38816;51.142;-0.974;2023-05-15T04:02:37;100262.47;;;9.32;100.00
51439;BME280;38816;51.142;-0.974;2023-05-15T04:05:03;100284.03;;;9.40;100.00
51439;BME280;38816;51.142;-0.974;2023-05-15T04:07:30;100280.53;;;9.36;100.00
51439;BME280;38816;51.142;-0.974;2023-05-15T04:09:55;100284.03;;;9.40;100.00
51439;BME280;38816;51.142;-0.974;2023-05-15T04:12:21;100284.00;;;9.38;100.00
51439;BME280;38816;51.142;-0.974;2023-05-15T04:14:46;100274.44;;;9.31;100.00
51439;BME280;38816;51.142;-0.974;2023-05-15T04:17:12;100281.16;;;9.26;100.00
51439;BME280;38816;51.142;-0.974;2023-05-15T04:19:37;100287.94;;;9.23;100.00
51439;BME280;38816;51.142;-0.974;2023-05-15T04:22:04;100293.22;;;9.30;100.00
51439;BME280;38816;51.142;-0.974;2023-05-15T04:24:30;100298.50;;;9.36;100.00
51439;BME280;38816;51.142;-0.974;2023-05-15T04:26:55;100318.03;;;9.30;100.00
51439;BME280;38816;51.142;-0.974;2023-05-15T04:29:21;100303.28;;;9.21;100.00
51439;BME280;38816;51.142;-0.974;2023-05-15T04:31:46;100309.38;;;9.26;100.00
51439;BME280;38816;51.142;-0.974;2023-05-15T04:34:12;100314.28;;;9.16;100.00
51439;BME280;38816;51.142;-0.974;2023-05-15T04:36:37;100304.00;;;9.14;100.00
51439;BME280;38816;51.142;-0.974;2023-05-15T04:39:02;100312.59;;;9.16;100.00
51439;BME280;38816;51.142;-0.974;2023-05-15T04:41:28;100313.31;;;9.10;100.00
51439;BME280;38816;51.142;-0.974;2023-05-15T04:43:54;100327.84;;;9.11;100.00
51439;BME280;38816;51.142;-0.974;2023-05-15T04:46:20;100330.22;;;9.04;100.00
51439;BME280;38816;51.142;-0.974;2023-05-15T04:48:45;100331.69;;;8.93;100.00
51439;BME280;38816;51.142;-0.974;2023-05-15T04:51:11;100336.06;;;8.97;100.00
51439;BME280;38816;51.142;-0.974;2023-05-15T04:53:36;100330.63;;;8.84;100.00
51439;BME280;38816;51.142;-0.974;2023-05-15T04:56:01;100335.84;;;8.87;100.00
51439;BME280;38816;51.142;-0.974;2023-05-15T04:58:27;100337.50;;;8.87;100.00
51439;BME280;38816;51.142;-0.974;2023-05-15T05:00:52;100344.34;;;8.86;100.00
51439;BME280;38816;51.142;-0.974;2023-05-15T05:03:18;100351.13;;;8.84;100.00
51439;BME280;38816;51.142;-0.974;2023-05-15T05:05:43;100333.00;;;8.77;100.00
51439;BME280;38816;51.142;-0.974;2023-05-15T05:08:08;100345.81;;;8.77;100.00
51439;BME280;38816;51.142;-0.974;2023-05-15T05:10:34;100354.34;;;8.77;100.00
51439;BME280;38816;51.142;-0.974;2023-05-15T05:12:59;100358.84;;;8.86;100.00
51439;BME280;38816;51.142;-0.974;2023-05-15T05:15:24;100351.22;;;8.87;100.00
51439;BME280;38816;51.142;-0.974;2023-05-15T05:17:51;100362.47;;;8.94;100.00
51439;BME280;38816;51.142;-0.974;2023-05-15T05:20:16;100347.91;;;8.92;100.00
51439;BME280;38816;51.142;-0.974;2023-05-15T05:22:42;100355.75;;;8.99;100.00
51439;BME280;38816;51.142;-0.974;2023-05-15T05:25:07;100357.69;;;9.08;100.00
51439;BME280;38816;51.142;-0.974;2023-05-15T05:27:33;100362.81;;;9.08;100.00
51439;BME280;38816;51.142;-0.974;2023-05-15T05:29:58;100376.78;;;9.19;100.00
51439;BME280;38816;51.142;-0.974;2023-05-15T05:32:24;100366.56;;;9.22;100.00
51439;BME280;38816;51.142;-0.974;2023-05-15T05:34:50;100368.50;;;9.31;100.00
51439;BME280;38816;51.142;-0.974;2023-05-15T05:37:15;100366.63;;;9.24;100.00
51439;BME280;38816;51.142;-0.974;2023-05-15T05:39:41;100377.88;;;9.29;100.00
51439;BME280;38816;51.142;-0.974;2023-05-15T05:42:06;100368.28;;;9.22;100.00
51439;BME280;38816;51.142;-0.974;2023-05-15T05:44:31;100373.50;;;9.25;100.00
51439;BME280;38816;51.142;-0.974;2023-05-15T05:46:58;100392.31;;;9.25;100.00
51439;BME280;38816;51.142;-0.974;2023-05-15T05:49:24;100367.41;;;9.21;100.00
51439;BME280;38816;51.142;-0.974;2023-05-15T05:51:49;100379.47;;;9.25;100.00
51439;BME280;38816;51.142;-0.974;2023-05-15T05:54:14;100381.31;;;9.31;100.00
51439;BME280;38816;51.142;-0.974;2023-05-15T05:56:42;100387.25;;;9.28;100.00
51439;BME280;38816;51.142;-0.974;2023-05-15T05:59:08;100397.66;;;9.34;100.00
51439;BME280;38816;51.142;-0.974;2023-05-15T06:01:34;100393.28;;;9.30;100.00
51439;BME280;38816;51.142;-0.974;2023-05-15T06:04:00;100389.88;;;9.31;100.00
51439;BME280;38816;51.142;-0.974;2023-05-15T06:06:25;100392.59;;;9.37;100.00
51439;BME280;38816;51.142;-0.974;2023-05-15T06:08:50;100407.34;;;9.46;100.00
51439;BME280;38816;51.142;-0.974;2023-05-15T06:11:16;100411.03;;;9.59;100.00
51439;BME280;38816;51.142;-0.974;2023-05-15T06:13:41;100400.66;;;9.53;100.00
51439;BME280;38816;51.142;-0.974;2023-05-15T06:16:07;100403.31;;;9.57;100.00
51439;BME280;38816;51.142;-0.974;2023-05-15T06:18:33;100397.34;;;9.58;100.00
51439;BME280;38816;51.142;-0.974;2023-05-15T06:20:58;100393.06;;;9.57;100.00
51439;BME280;38816;51.142;-0.974;2023-05-15T06:23:25;100409.28;;;9.55;100.00
51439;BME280;38816;51.142;-0.974;2023-05-15T06:25:50;100399.22;;;9.64;100.00
51439;BME280;38816;51.142;-0.974;2023-05-15T06:28:16;100415.56;;;9.69;100.00
51439;BME280;38816;51.142;-0.974;2023-05-15T06:30:41;100408.72;;;9.68;100.00
51439;BME280;38816;51.142;-0.974;2023-05-15T06:33:07;100405.97;;;9.60;100.00
51439;BME280;38816;51.142;-0.974;2023-05-15T06:35:32;100416.41;;;9.68;100.00
51439;BME280;38816;51.142;-0.974;2023-05-15T06:37:58;100416.66;;;9.80;100.00
51439;BME280;38816;51.142;-0.974;2023-05-15T06:40:23;100405.00;;;9.95;100.00
51439;BME280;38816;51.142;-0.974;2023-05-15T06:42:48;100402.72;;;10.08;100.00
51439;BME280;38816;51.142;-0.974;2023-05-15T06:45:14;100420.09;;;10.20;100.00
51439;BME280;38816;51.142;-0.974;2023-05-15T06:47:39;100431.31;;;10.24;100.00
51439;BME280;38816;51.142;-0.974;2023-05-15T06:50:05;100406.53;;;10.24;100.00
51439;BME280;38816;51.142;-0.974;2023-05-15T06:52:31;100414.31;;;10.27;100.00
51439;BME280;38816;51.142;-0.974;2023-05-15T06:54:56;100417.06;;;10.36;100.00
51439;BME280;38816;51.142;-0.974;2023-05-15T06:57:22;100420.41;;;10.32;100.00
51439;BME280;38816;51.142;-0.974;2023-05-15T06:59:47;100409.16;;;10.27;100.00
51439;BME280;38816;51.142;-0.974;2023-05-15T07:02:12;100416.97;;;10.33;100.00
51439;BME280;38816;51.142;-0.974;2023-05-15T07:04:38;100429.91;;;10.38;100.00
51439;BME280;38816;51.142;-0.974;2023-05-15T07:07:03;100418.72;;;10.34;100.00
51439;BME280;38816;51.142;-0.974;2023-05-15T07:09:29;100436.84;;;10.41;100.00
51439;BME280;38816;51.142;-0.974;2023-05-15T07:11:54;100434.03;;;10.30;100.00
51439;BME280;38816;51.142;-0.974;2023-05-15T07:14:20;100421.63;;;10.12;100.00
51439;BME280;38816;51.142;-0.974;2023-05-15T07:16:45;100427.53;;;10.06;100.00
51439;BME280;38816;51.142;-0.974;2023-05-15T07:19:11;100429.41;;;10.15;100.00
51439;BME280;38816;51.142;-0.974;2023-05-15T07:21:38;100430.59;;;10.29;100.00
51439;BME280;38816;51.142;-0.974;2023-05-15T07:24:03;100427.25;;;10.33;100.00
51439;BME280;38816;51.142;-0.974;2023-05-15T07:26:30;100443.81;;;10.48;100.00
51439;BME280;38816;51.142;-0.974;2023-05-15T07:28:56;100444.25;;;10.69;100.00
51439;BME280;38816;51.142;-0.974;2023-05-15T07:31:21;100448.38;;;10.62;100.00
51439;BME280;38816;51.142;-0.974;2023-05-15T07:33:47;100433.78;;;10.60;100.00
51439;BME280;38816;51.142;-0.974;2023-05-15T07:36:12;100457.19;;;10.74;100.00
51439;BME280;38816;51.142;-0.974;2023-05-15T07:38:38;100439.28;;;10.78;100.00
51439;BME280;38816;51.142;-0.974;2023-05-15T07:41:03;100448.03;;;10.89;100.00
51439;BME280;38816;51.142;-0.974;2023-05-15T07:43:28;100450.81;;;10.99;100.00
51439;BME280;38816;51.142;-0.974;2023-05-15T07:45:54;100454.44;;;11.11;100.00
51439;BME280;38816;51.142;-0.974;2023-05-15T07:48:19;100455.31;;;11.12;100.00
51439;BME280;38816;51.142;-0.974;2023-05-15T07:50:46;100452.72;;;11.12;100.00
51439;BME280;38816;51.142;-0.974;2023-05-15T07:53:12;100452.72;;;11.10;100.00
51439;BME280;38816;51.142;-0.974;2023-05-15T07:55:38;100461.44;;;11.19;100.00
51439;BME280;38816;51.142;-0.974;2023-05-15T07:58:05;100464.19;;;11.29;100.00
51439;BME280;38816;51.142;-0.974;2023-05-15T08:00:32;100468.53;;;11.33;98.19
51439;BME280;38816;51.142;-0.974;2023-05-15T08:02:58;100460.66;;;11.24;98.53
51439;BME280;38816;51.142;-0.974;2023-05-15T08:05:23;100466.97;;;11.40;93.62
51439;BME280;38816;51.142;-0.974;2023-05-15T08:07:49;100465.25;;;11.42;89.75
51439;BME280;38816;51.142;-0.974;2023-05-15T08:10:14;100463.44;;;11.35;86.43
51439;BME280;38816;51.142;-0.974;2023-05-15T08:12:40;100452.19;;;11.30;87.64
51439;BME280;38816;51.142;-0.974;2023-05-15T08:15:10;100476.25;;;11.33;89.87
51439;BME280;38816;51.142;-0.974;2023-05-15T08:17:36;100474.69;;;11.41;85.75
51439;BME280;38816;51.142;-0.974;2023-05-15T08:20:01;100476.22;;;11.30;87.37
51439;BME280;38816;51.142;-0.974;2023-05-15T08:22:27;100479.75;;;11.37;84.68
51439;BME280;38816;51.142;-0.974;2023-05-15T08:24:54;100474.47;;;11.29;84.88
51439;BME280;38816;51.142;-0.974;2023-05-15T08:27:19;100481.31;;;11.27;84.68
51439;BME280;38816;51.142;-0.974;2023-05-15T08:29:45;100472.59;;;11.19;87.48
51439;BME280;38816;51.142;-0.974;2023-05-15T08:32:10;100481.31;;;11.27;90.72
51439;BME280;38816;51.142;-0.974;2023-05-15T08:34:36;100485.84;;;11.42;87.07
51439;BME280;38816;51.142;-0.974;2023-05-15T08:37:01;100479.91;;;11.45;84.44
51439;BME280;38816;51.142;-0.974;2023-05-15T08:39:26;100486.63;;;11.38;84.13
51439;BME280;38816;51.142;-0.974;2023-05-15T08:44:24;100495.19;;;11.35;85.90
51439;BME280;38816;51.142;-0.974;2023-05-15T08:46:52;100496.16;;;11.44;84.98
51439;BME280;38816;51.142;-0.974;2023-05-15T08:49:49;100492.06;;;11.55;83.82
51439;BME280;38816;51.142;-0.974;2023-05-15T08:52:15;100494.66;;;11.56;84.88
51439;BME280;38816;51.142;-0.974;2023-05-15T08:54:41;100478.50;;;11.65;84.80
51439;BME280;38816;51.142;-0.974;2023-05-15T08:57:07;100483.00;;;11.77;82.54
51439;BME280;38816;51.142;-0.974;2023-05-15T08:59:33;100491.66;;;11.82;83.88
51439;BME280;38816;51.142;-0.974;2023-05-15T09:01:59;100485.72;;;11.84;80.31
51439;BME280;38816;51.142;-0.974;2023-05-15T09:04:24;100489.19;;;11.86;80.37
51439;BME280;38816;51.142;-0.974;2023-05-15T09:06:50;100508.97;;;11.89;75.96
51439;BME280;38816;51.142;-0.974;2023-05-15T09:09:17;100492.63;;;11.87;76.62
51439;BME280;38816;51.142;-0.974;2023-05-15T09:11:44;100491.88;;;11.94;72.63
51439;BME280;38816;51.142;-0.974;2023-05-15T09:14:10;100491.16;;;12.06;74.11
51439;BME280;38816;51.142;-0.974;2023-05-15T09:16:36;100499.03;;;12.15;71.72
51439;BME280;38816;51.142;-0.974;2023-05-15T09:19:01;100495.69;;;12.21;71.24
51439;BME280;38816;51.142;-0.974;2023-05-15T09:21:28;100492.94;;;12.10;73.07
51439;BME280;38816;51.142;-0.974;2023-05-15T09:27:01;100485.53;;;12.33;72.69
51439;BME280;38816;51.142;-0.974;2023-05-15T09:29:31;100484.03;;;12.49;70.56
51439;BME280;38816;51.142;-0.974;2023-05-15T09:32:02;100486.47;;;12.39;71.86
51439;BME280;38816;51.142;-0.974;2023-05-15T09:34:31;100508.09;;;12.51;71.97
51439;BME280;38816;51.142;-0.974;2023-05-15T09:36:59;100507.34;;;12.58;71.77
51439;BME280;38816;51.142;-0.974;2023-05-15T09:39:25;100499.66;;;12.62;66.35
51439;BME280;38816;51.142;-0.974;2023-05-15T09:41:51;100496.06;;;12.50;67.11
51439;BME280;38816;51.142;-0.974;2023-05-15T09:44:24;100492.66;;;12.52;66.04
51439;BME280;38816;51.142;-0.974;2023-05-15T09:46:50;100480.53;;;12.47;67.70
51439;BME280;38816;51.142;-0.974;2023-05-15T09:49:16;100494.16;;;12.36;64.51
51439;BME280;38816;51.142;-0.974;2023-05-15T09:51:42;100490.84;;;12.44;65.68
51439;BME280;38816;51.142;-0.974;2023-05-15T09:54:14;100504.72;;;12.55;66.34
51439;BME280;38816;51.142;-0.974;2023-05-15T09:56:44;100497.03;;;12.59;62.79
51439;BME280;38816;51.142;-0.974;2023-05-15T09:59:13;100504.94;;;12.73;64.47
51439;BME280;38816;51.142;-0.974;2023-05-15T10:01:42;100489.41;;;12.65;63.36
51439;BME280;38816;51.142;-0.974;2023-05-15T10:04:09;100498.91;;;12.74;60.66
51439;BME280;38816;51.142;-0.974;2023-05-15T10:06:35;100497.28;;;12.79;61.13
51439;BME280;38816;51.142;-0.974;2023-05-15T10:09:01;100498.09;;;12.75;57.56
51439;BME280;38816;51.142;-0.974;2023-05-15T10:11:29;100494.66;;;12.76;56.85
51439;BME280;38816;51.142;-0.974;2023-05-15T10:13:55;100496.59;;;12.94;58.20
51439;BME280;38816;51.142;-0.974;2023-05-15T10:16:21;100486.41;;;13.06;53.19
51439;BME280;38816;51.142;-0.974;2023-05-15T10:18:47;100487.44;;;13.22;49.90
51439;BME280;38816;51.142;-0.974;2023-05-15T10:21:15;100483.22;;;13.30;50.67
51439;BME280;38816;51.142;-0.974;2023-05-15T10:23:42;100498.03;;;13.53;49.35
51439;BME280;38816;51.142;-0.974;2023-05-15T10:26:14;100498.91;;;13.53;48.05
51439;BME280;38816;51.142;-0.974;2023-05-15T10:28:45;100488.56;;;13.52;46.34
51439;BME280;38816;51.142;-0.974;2023-05-15T10:31:10;100493.78;;;13.56;49.73
51439;BME280;38816;51.142;-0.974;2023-05-15T10:33:37;100487.78;;;13.63;49.89
51439;BME280;38816;51.142;-0.974;2023-05-15T10:36:04;100490.50;;;13.79;51.11
51439;BME280;38816;51.142;-0.974;2023-05-15T10:38:31;100492.31;;;13.95;50.05
51439;BME280;38816;51.142;-0.974;2023-05-15T10:40:58;100492.41;;;14.06;47.71
51439;BME280;38816;51.142;-0.974;2023-05-15T10:43:25;100495.84;;;14.09;45.71
51439;BME280;38816;51.142;-0.974;2023-05-15T10:45:51;100500.19;;;14.10;45.34
51439;BME280;38816;51.142;-0.974;2023-05-15T10:48:17;100484.72;;;14.18;48.53
51439;BME280;38816;51.142;-0.974;2023-05-15T10:50:43;100483.13;;;14.44;47.63
51439;BME280;38816;51.142;-0.974;2023-05-15T10:53:09;100489.28;;;14.66;49.74
51439;BME280;38816;51.142;-0.974;2023-05-15T10:55:35;100503.97;;;14.75;46.07
51439;BME280;38816;51.142;-0.974;2023-05-15T10:58:01;100491.81;;;14.53;47.68
51439;BME280;38816;51.142;-0.974;2023-05-15T11:00:29;100502.06;;;14.40;49.45
51439;BME280;38816;51.142;-0.974;2023-05-15T11:02:59;100495.81;;;14.05;49.88
51439;BME280;38816;51.142;-0.974;2023-05-15T11:05:25;100508.84;;;14.15;50.11
51439;BME280;38816;51.142;-0.974;2023-05-15T11:10:45;100501.97;;;14.21;49.68
51439;BME280;38816;51.142;-0.974;2023-05-15T11:13:11;100523.66;;;14.46;48.59
51439;BME280;38816;51.142;-0.974;2023-05-15T11:15:46;100516.00;;;14.61;48.21
51439;BME280;38816;51.142;-0.974;2023-05-15T11:18:12;100515.16;;;14.66;47.31
51439;BME280;38816;51.142;-0.974;2023-05-15T11:23:04;100513.41;;;14.59;47.07
51439;BME280;38816;51.142;-0.974;2023-05-15T11:25:30;100519.44;;;14.57;45.71
51439;BME280;38816;51.142;-0.974;2023-05-15T11:27:58;100522.94;;;14.68;45.89
51439;BME280;38816;51.142;-0.974;2023-05-15T11:30:37;100516.94;;;14.74;46.37
51439;BME280;38816;51.142;-0.974;2023-05-15T11:33:07;100537.72;;;14.95;46.84
51439;BME280;38816;51.142;-0.974;2023-05-15T11:35:43;100529.09;;;15.13;42.82
51439;BME280;38816;51.142;-0.974;2023-05-15T11:38:13;100544.63;;;15.13;42.96
51439;BME280;38816;51.142;-0.974;2023-05-15T11:43:29;100527.44;;;15.47;44.40
51439;BME280;38816;51.142;-0.974;2023-05-15T11:46:05;100538.72;;;15.69;42.75
51439;BME280;38816;51.142;-0.974;2023-05-15T11:48:33;100529.22;;;15.80;42.21
51439;BME280;38816;51.142;-0.974;2023-05-15T11:51:03;100513.66;;;15.80;40.76
51439;BME280;38816;51.142;-0.974;2023-05-15T11:53:31;100505.88;;;15.83;43.72
51439;BME280;38816;51.142;-0.974;2023-05-15T11:55:56;100520.53;;;15.41;44.20
51439;BME280;38816;51.142;-0.974;2023-05-15T11:58:24;100535.22;;;15.58;44.20
51439;BME280;38816;51.142;-0.974;2023-05-15T12:00:51;100537.88;;;15.85;43.02
51439;BME280;38816;51.142;-0.974;2023-05-15T12:03:22;100519.69;;;16.08;43.88
51439;BME280;38816;51.142;-0.974;2023-05-15T12:05:48;100530.97;;;15.86;42.27
51439;BME280;38816;51.142;-0.974;2023-05-15T12:08:13;100531.81;;;15.68;43.70
51439;BME280;38816;51.142;-0.974;2023-05-15T12:10:40;100526.63;;;15.95;41.75
51439;BME280;38816;51.142;-0.974;2023-05-15T12:13:07;100516.19;;;16.20;42.39
51439;BME280;38816;51.142;-0.974;2023-05-15T12:15:36;100533.50;;;16.27;42.42
51439;BME280;38816;51.142;-0.974;2023-05-15T12:18:02;100539.59;;;16.08;42.96
51439;BME280;38816;51.142;-0.974;2023-05-15T12:20:27;100534.38;;;15.89;43.18
51439;BME280;38816;51.142;-0.974;2023-05-15T12:22:53;100537.00;;;15.83;45.88
51439;BME280;38816;51.142;-0.974;2023-05-15T12:25:18;100536.09;;;16.07;41.38
51439;BME280;38816;51.142;-0.974;2023-05-15T12:27:44;100524.81;;;16.37;41.74
51439;BME280;38816;51.142;-0.974;2023-05-15T12:30:10;100519.59;;;16.50;42.18
51439;BME280;38816;51.142;-0.974;2023-05-15T12:32:37;100530.78;;;16.67;39.74
51439;BME280;38816;51.142;-0.974;2023-05-15T12:35:03;100529.88;;;16.79;40.41
51439;BME280;38816;51.142;-0.974;2023-05-15T12:37:34;100518.66;;;16.72;39.90
51439;BME280;38816;51.142;-0.974;2023-05-15T12:40:04;100520.44;;;16.52;39.54
51439;BME280;38816;51.142;-0.974;2023-05-15T12:42:41;100536.84;;;16.63;42.31
51439;BME280;38816;51.142;-0.974;2023-05-15T12:45:14;100536.84;;;16.75;37.72
51439;BME280;38816;51.142;-0.974;2023-05-15T12:47:41;100529.88;;;16.80;39.74
51439;BME280;38816;51.142;-0.974;2023-05-15T12:50:13;100549.88;;;16.49;39.74
51439;BME280;38816;51.142;-0.974;2023-05-15T12:52:39;100540.44;;;16.04;40.45
51439;BME280;38816;51.142;-0.974;2023-05-15T12:55:05;100522.19;;;16.39;40.88
51439;BME280;38816;51.142;-0.974;2023-05-15T12:57:31;100526.34;;;16.95;40.56